sensor_id;sensor_type;location;lat;lon;timestamp;pressure;altitude;pressure_sealevel;temperature;humidity
10946;BME280;5525;42.648;23.368;2024-01-30T00:00:36;96654.59;;;-0.82;100.00
10946;BME280;5525;42.648;23.368;2024-01-30T00:03:03;96647.84;;;-0.91;100.00
10946;BME280;5525;42.648;23.368;2024-01-30T00:05:30;96651.13;;;-1.15;100.00
10946;BME280;5525;42.648;23.368;2024-01-30T00:07:58;96651.28;;;-1.17;100.00
10946;BME280;5525;42.648;23.368;2024-01-30T00:10:25;96652.72;;;-1.01;100.00
10946;BME280;5525;42.648;23.368;2024-01-30T00:12:52;96653.38;;;-0.86;100.00
10946;BME280;5525;42.648;23.368;2024-01-30T00:15:18;96649.88;;;-0.74;100.00
10946;BME280;5525;42.648;23.368;2024-01-30T00:17:45;96640.72;;;-0.97;100.00
10946;BME280;5525;42.648;23.368;2024-01-30T00:20:12;96659.25;;;-0.78;100.00
10946;BME280;5525;42.648;23.368;2024-01-30T00:22:39;96643.56;;;-0.86;100.00
10946;BME280;5525;42.648;23.368;2024-01-30T00:25:08;96652.97;;;-0.83;100.00
10946;BME280;5525;42.648;23.368;2024-01-30T00:27:35;96661.50;;;-0.81;100.00
10946;BME280;5525;42.648;23.368;2024-01-30T00:30:02;96658.84;;;-0.75;100.00
10946;BME280;5525;42.648;23.368;2024-01-30T00:32:28;96659.06;;;-0.70;100.00
10946;BME280;5525;42.648;23.368;2024-01-30T00:34:55;96666.81;;;-0.75;100.00
10946;BME280;5525;42.648;23.368;2024-01-30T00:37:22;96657.03;;;-0.81;100.00
10946;BME280;5525;42.648;23.368;2024-01-30T00:39:48;96660.50;;;-0.80;100.00
10946;BME280;5525;42.648;23.368;2024-01-30T00:42:17;96655.81;;;-0.85;100.00
10946;BME280;5525;42.648;23.368;2024-01-30T00:44:44;96662.13;;;-0.79;100.00
10946;BME280;5525;42.648;23.368;2024-01-30T00:47:11;96659.88;;;-0.89;100.00
10946;BME280;5525;42.648;23.368;2024-01-30T00:49:38;96667.03;;;-0.96;100.00
10946;BME280;5525;42.648;23.368;2024-01-30T00:52:05;96662.72;;;-0.97;100.00
10946;BME280;5525;42.648;23.368;2024-01-30T00:54:32;96651.53;;;-0.99;100.00
10946;BME280;5525;42.648;23.368;2024-01-30T00:56:59;96663.13;;;-1.00;100.00
10946;BME280;5525;42.648;23.368;2024-01-30T00:59:27;96659.69;;;-1.07;100.00
10946;BME280;5525;42.648;23.368;2024-01-30T01:01:54;96657.81;;;-1.26;100.00
10946;BME280;5525;42.648;23.368;2024-01-30T01:04:20;96652.53;;;-1.19;100.00
10946;BME280;5525;42.648;23.368;2024-01-30T01:06:47;96653.53;;;-1.07;100.00
10946;BME280;5525;42.648;23.368;2024-01-30T01:09:14;96646.63;;;-1.08;100.00
10946;BME280;5525;42.648;23.368;2024-01-30T01:11:41;96649.06;;;-1.13;100.00
10946;BME280;5525;42.648;23.368;2024-01-30T01:14:08;96656.00;;;-1.12;100.00
10946;BME280;5525;42.648;23.368;2024-01-30T01:16:36;96645.81;;;-1.15;100.00
10946;BME280;5525;42.648;23.368;2024-01-30T01:19:03;96640.09;;;-1.12;100.00
10946;BME280;5525;42.648;23.368;2024-01-30T01:21:29;96653.16;;;-1.11;100.00
10946;BME280;5525;42.648;23.368;2024-01-30T01:23:56;96645.97;;;-1.49;100.00
10946;BME280;5525;42.648;23.368;2024-01-30T01:26:23;96657.50;;;-1.70;100.00
10946;BME280;5525;42.648;23.368;2024-01-30T01:28:50;96654.25;;;-1.79;100.00
10946;BME280;5525;42.648;23.368;2024-01-30T01:31:16;96652.28;;;-1.57;100.00
10946;BME280;5525;42.648;23.368;2024-01-30T01:33:44;96660.00;;;-1.49;100.00
10946;BME280;5525;42.648;23.368;2024-01-30T01:36:13;96655.53;;;-1.61;100.00
10946;BME280;5525;42.648;23.368;2024-01-30T01:38:40;96657.75;;;-1.65;100.00
10946;BME280;5525;42.648;23.368;2024-01-30T01:41:06;96663.47;;;-1.48;100.00
10946;BME280;5525;42.648;23.368;2024-01-30T01:43:33;96659.88;;;-1.28;100.00
10946;BME280;5525;42.648;23.368;2024-01-30T01:46:00;96658.66;;;-1.12;100.00
10946;BME280;5525;42.648;23.368;2024-01-30T01:48:27;96652.31;;;-0.98;100.00
10946;BME280;5525;42.648;23.368;2024-01-30T01:50:56;96656.63;;;-0.91;100.00
10946;BME280;5525;42.648;23.368;2024-01-30T01:53:23;96659.47;;;-0.86;100.00
10946;BME280;5525;42.648;23.368;2024-01-30T01:55:50;96655.81;;;-0.91;100.00
10946;BME280;5525;42.648;23.368;2024-01-30T01:58:19;96657.63;;;-0.92;100.00
10946;BME280;5525;42.648;23.368;2024-01-30T02:00:47;96656.59;;;-1.10;100.00
10946;BME280;5525;42.648;23.368;2024-01-30T02:03:16;96669.44;;;-1.27;100.00
10946;BME280;5525;42.648;23.368;2024-01-30T02:05:44;96667.22;;;-1.04;100.00
10946;BME280;5525;42.648;23.368;2024-01-30T02:08:13;96666.84;;;-0.88;100.00
10946;BME280;5525;42.648;23.368;2024-01-30T02:10:40;96659.88;;;-0.89;100.00
10946;BME280;5525;42.648;23.368;2024-01-30T02:13:07;96668.84;;;-0.70;100.00
10946;BME280;5525;42.648;23.368;2024-01-30T02:15:34;96669.84;;;-0.52;100.00
10946;BME280;5525;42.648;23.368;2024-01-30T02:18:00;96660.06;;;-0.51;100.00
10946;BME280;5525;42.648;23.368;2024-01-30T02:20:30;96660.69;;;-0.75;100.00
10946;BME280;5525;42.648;23.368;2024-01-30T02:22:58;96667.19;;;-0.45;100.00
10946;BME280;5525;42.648;23.368;2024-01-30T02:25:31;96660.06;;;-0.51;100.00
10946;BME280;5525;42.648;23.368;2024-01-30T02:27:58;96657.81;;;-0.54;100.00
10946;BME280;5525;42.648;23.368;2024-01-30T02:30:25;96657.00;;;-0.55;100.00
10946;BME280;5525;42.648;23.368;2024-01-30T02:32:51;96658.81;;;-0.49;100.00
10946;BME280;5525;42.648;23.368;2024-01-30T02:35:18;96666.16;;;-0.44;100.00
10946;BME280;5525;42.648;23.368;2024-01-30T02:37:45;96662.72;;;-0.45;100.00
10946;BME280;5525;42.648;23.368;2024-01-30T02:40:13;96657.22;;;-0.63;100.00
10946;BME280;5525;42.648;23.368;2024-01-30T02:42:40;96665.16;;;-0.63;100.00
10946;BME280;5525;42.648;23.368;2024-01-30T02:45:09;96660.47;;;-0.61;100.00
10946;BME280;5525;42.648;23.368;2024-01-30T02:47:36;96667.00;;;-0.57;100.00
10946;BME280;5525;42.648;23.368;2024-01-30T02:50:03;96662.31;;;-0.55;100.00
10946;BME280;5525;42.648;23.368;2024-01-30T02:52:30;96658.66;;;-0.60;100.00
10946;BME280;5525;42.648;23.368;2024-01-30T02:54:57;96664.91;;;-0.35;100.00
10946;BME280;5525;42.648;23.368;2024-01-30T02:57:25;96666.13;;;-0.25;100.00
10946;BME280;5525;42.648;23.368;2024-01-30T02:59:52;96659.00;;;-0.31;100.00
10946;BME280;5525;42.648;23.368;2024-01-30T03:02:19;96661.44;;;-0.29;100.00
10946;BME280;5525;42.648;23.368;2024-01-30T03:04:46;96650.25;;;-0.38;100.00
10946;BME280;5525;42.648;23.368;2024-01-30T03:07:12;96654.94;;;-0.33;100.00
10946;BME280;5525;42.648;23.368;2024-01-30T03:09:41;96662.69;;;-0.38;100.00
10946;BME280;5525;42.648;23.368;2024-01-30T03:12:09;96649.44;;;-0.45;100.00
10946;BME280;5525;42.648;23.368;2024-01-30T03:14:37;96648.00;;;-0.41;100.00
10946;BME280;5525;42.648;23.368;2024-01-30T03:17:04;96650.44;;;-0.39;100.00
10946;BME280;5525;42.648;23.368;2024-01-30T03:19:31;96659.00;;;-0.31;100.00
10946;BME280;5525;42.648;23.368;2024-01-30T03:21:57;96649.03;;;-0.42;100.00
10946;BME280;5525;42.648;23.368;2024-01-30T03:24:24;96654.50;;;-0.30;100.00
10946;BME280;5525;42.648;23.368;2024-01-30T03:26:51;96638.38;;;-0.29;100.00
10946;BME280;5525;42.648;23.368;2024-01-30T03:29:18;96645.09;;;-0.26;100.00
10946;BME280;5525;42.648;23.368;2024-01-30T03:31:46;96645.31;;;-0.28;100.00
10946;BME280;5525;42.648;23.368;2024-01-30T03:34:13;96642.84;;;-0.29;100.00
10946;BME280;5525;42.648;23.368;2024-01-30T03:36:40;96642.31;;;-0.57;100.00
10946;BME280;5525;42.648;23.368;2024-01-30T03:39:06;96651.91;;;-0.56;100.00
10946;BME280;5525;42.648;23.368;2024-01-30T03:41:33;96638.63;;;-0.56;100.00
10946;BME280;5525;42.648;23.368;2024-01-30T03:44:00;96641.53;;;-0.77;100.00
10946;BME280;5525;42.648;23.368;2024-01-30T03:46:27;96636.03;;;-1.02;100.00
10946;BME280;5525;42.648;23.368;2024-01-30T03:48:56;96642.31;;;-0.77;100.00
10946;BME280;5525;42.648;23.368;2024-01-30T03:51:23;96627.66;;;-0.86;100.00
10946;BME280;5525;42.648;23.368;2024-01-30T03:53:50;96633.38;;;-0.82;100.00
10946;BME280;5525;42.648;23.368;2024-01-30T03:56:17;96628.66;;;-0.74;100.00
10946;BME280;5525;42.648;23.368;2024-01-30T03:58:43;96634.16;;;-0.69;100.00
10946;BME280;5525;42.648;23.368;2024-01-30T04:01:13;96631.72;;;-0.64;100.00
10946;BME280;5525;42.648;23.368;2024-01-30T04:03:40;96633.53;;;-0.64;100.00
10946;BME280;5525;42.648;23.368;2024-01-30T04:06:08;96635.59;;;-0.66;100.00
10946;BME280;5525;42.648;23.368;2024-01-30T04:08:36;96631.31;;;-0.67;100.00
10946;BME280;5525;42.648;23.368;2024-01-30T04:11:04;96623.34;;;-0.61;100.00
10946;BME280;5525;42.648;23.368;2024-01-30T04:13:32;96623.75;;;-0.64;100.00
10946;BME280;5525;42.648;23.368;2024-01-30T04:15:59;96633.31;;;-0.50;100.00
10946;BME280;5525;42.648;23.368;2024-01-30T04:18:26;96632.28;;;-0.49;100.00
10946;BME280;5525;42.648;23.368;2024-01-30T04:20:53;96631.66;;;-0.44;100.00
10946;BME280;5525;42.648;23.368;2024-01-30T04:23:21;96635.97;;;-0.43;100.00
10946;BME280;5525;42.648;23.368;2024-01-30T04:25:48;96635.78;;;-0.48;100.00
10946;BME280;5525;42.648;23.368;2024-01-30T04:28:15;96636.19;;;-0.45;100.00
10946;BME280;5525;42.648;23.368;2024-01-30T04:30:42;96637.22;;;-0.59;100.00
10946;BME280;5525;42.648;23.368;2024-01-30T04:33:10;96639.47;;;-0.62;100.00
10946;BME280;5525;42.648;23.368;2024-01-30T04:35:37;96640.72;;;-0.65;100.00
10946;BME280;5525;42.648;23.368;2024-01-30T04:38:04;96642.31;;;-0.64;100.00
10946;BME280;5525;42.648;23.368;2024-01-30T04:40:32;96647.00;;;-0.72;100.00
10946;BME280;5525;42.648;23.368;2024-01-30T04:42:59;96648.47;;;-0.96;100.00
10946;BME280;5525;42.648;23.368;2024-01-30T04:45:25;96644.56;;;-1.00;100.00
10946;BME280;5525;42.648;23.368;2024-01-30T04:47:52;96648.44;;;-1.09;100.00
10946;BME280;5525;42.648;23.368;2024-01-30T04:50:19;96640.91;;;-0.99;100.00
10946;BME280;5525;42.648;23.368;2024-01-30T04:52:46;96654.56;;;-1.08;100.00
10946;BME280;5525;42.648;23.368;2024-01-30T04:55:13;96661.66;;;-1.35;100.00
10946;BME280;5525;42.648;23.368;2024-01-30T04:57:41;96654.31;;;-1.46;100.00
10946;BME280;5525;42.648;23.368;2024-01-30T05:00:09;96664.13;;;-1.33;100.00
10946;BME280;5525;42.648;23.368;2024-01-30T05:02:36;96664.22;;;-1.67;100.00
10946;BME280;5525;42.648;23.368;2024-01-30T05:05:03;96668.97;;;-1.50;100.00
10946;BME280;5525;42.648;23.368;2024-01-30T05:07:30;96669.41;;;-1.33;100.00
10946;BME280;5525;42.648;23.368;2024-01-30T05:09:57;96668.41;;;-1.32;100.00
10946;BME280;5525;42.648;23.368;2024-01-30T05:12:23;96664.56;;;-1.23;100.00
10946;BME280;5525;42.648;23.368;2024-01-30T05:14:51;96662.31;;;-1.26;100.00
10946;BME280;5525;42.648;23.368;2024-01-30T05:17:18;96659.47;;;-1.25;100.00
10946;BME280;5525;42.648;23.368;2024-01-30T05:19:45;96669.44;;;-1.40;100.00
10946;BME280;5525;42.648;23.368;2024-01-30T05:22:12;96668.38;;;-1.45;100.00
10946;BME280;5525;42.648;23.368;2024-01-30T05:24:41;96670.81;;;-1.44;100.00
10946;BME280;5525;42.648;23.368;2024-01-30T05:27:08;96675.31;;;-1.44;100.00
10946;BME280;5525;42.648;23.368;2024-01-30T05:29:35;96677.28;;;-1.66;100.00
10946;BME280;5525;42.648;23.368;2024-01-30T05:32:03;96672.78;;;-1.79;100.00
10946;BME280;5525;42.648;23.368;2024-01-30T05:34:31;96682.78;;;-1.74;100.00
10946;BME280;5525;42.648;23.368;2024-01-30T05:36:58;96675.03;;;-1.69;100.00
10946;BME280;5525;42.648;23.368;2024-01-30T05:39:25;96683.38;;;-1.72;100.00
10946;BME280;5525;42.648;23.368;2024-01-30T05:41:52;96675.00;;;-1.82;100.00
10946;BME280;5525;42.648;23.368;2024-01-30T05:44:19;96684.44;;;-1.66;100.00
10946;BME280;5525;42.648;23.368;2024-01-30T05:46:46;96682.00;;;-1.61;100.00
10946;BME280;5525;42.648;23.368;2024-01-30T05:49:14;96679.56;;;-1.63;100.00
10946;BME280;5525;42.648;23.368;2024-01-30T05:51:41;96679.13;;;-1.66;100.00
10946;BME280;5525;42.648;23.368;2024-01-30T05:54:07;96682.38;;;-1.64;100.00
10946;BME280;5525;42.648;23.368;2024-01-30T05:56:34;96679.16;;;-1.60;100.00
10946;BME280;5525;42.648;23.368;2024-01-30T05:59:01;96682.38;;;-1.64;100.00
10946;BME280;5525;42.648;23.368;2024-01-30T06:01:28;96680.56;;;-1.57;100.00
10946;BME280;5525;42.648;23.368;2024-01-30T06:03:55;96683.38;;;-1.72;100.00
10946;BME280;5525;42.648;23.368;2024-01-30T06:06:23;96675.47;;;-1.59;100.00
10946;BME280;5525;42.648;23.368;2024-01-30T06:08:50;96685.13;;;-1.38;100.00
10946;BME280;5525;42.648;23.368;2024-01-30T06:11:16;96682.47;;;-1.25;100.00
10946;BME280;5525;42.648;23.368;2024-01-30T06:13:44;96684.72;;;-1.22;100.00
10946;BME280;5525;42.648;23.368;2024-01-30T06:16:10;96683.09;;;-1.17;100.00
10946;BME280;5525;42.648;23.368;2024-01-30T06:18:37;96670.84;;;-1.24;100.00
10946;BME280;5525;42.648;23.368;2024-01-30T06:21:05;96685.56;;;-1.22;100.00
10946;BME280;5525;42.648;23.368;2024-01-30T06:23:33;96687.59;;;-1.17;100.00
10946;BME280;5525;42.648;23.368;2024-01-30T06:26:00;96681.09;;;-1.08;100.00
10946;BME280;5525;42.648;23.368;2024-01-30T06:28:27;96671.91;;;-1.06;100.00
10946;BME280;5525;42.648;23.368;2024-01-30T06:30:54;96682.09;;;-1.03;100.00
10946;BME280;5525;42.648;23.368;2024-01-30T06:33:20;96683.75;;;-1.02;100.00
10946;BME280;5525;42.648;23.368;2024-01-30T06:35:47;96684.34;;;-1.06;100.00
10946;BME280;5525;42.648;23.368;2024-01-30T06:38:14;96683.31;;;-1.25;100.00
10946;BME280;5525;42.648;23.368;2024-01-30T06:40:43;96678.41;;;-1.28;100.00
10946;BME280;5525;42.648;23.368;2024-01-30T06:43:10;96682.66;;;-1.33;100.00
10946;BME280;5525;42.648;23.368;2024-01-30T06:45:37;96687.75;;;-1.45;100.00
10946;BME280;5525;42.648;23.368;2024-01-30T06:48:04;96687.75;;;-1.45;100.00
10946;BME280;5525;42.648;23.368;2024-01-30T06:50:31;96690.81;;;-1.48;100.00
10946;BME280;5525;42.648;23.368;2024-01-30T06:52:58;96689.22;;;-1.23;100.00
10946;BME280;5525;42.648;23.368;2024-01-30T06:55:25;96690.66;;;-1.07;100.00
10946;BME280;5525;42.648;23.368;2024-01-30T06:57:53;96688.66;;;-0.92;100.00
10946;BME280;5525;42.648;23.368;2024-01-30T07:00:20;96683.34;;;-0.79;100.00
10946;BME280;5525;42.648;23.368;2024-01-30T07:02:47;96692.31;;;-0.67;100.00
10946;BME280;5525;42.648;23.368;2024-01-30T07:05:14;96693.53;;;-0.50;100.00
10946;BME280;5525;42.648;23.368;2024-01-30T07:07:42;96701.69;;;-0.39;100.00
10946;BME280;5525;42.648;23.368;2024-01-30T07:10:09;96697.19;;;-0.32;100.00
10946;BME280;5525;42.648;23.368;2024-01-30T07:12:36;96689.41;;;-0.20;100.00
10946;BME280;5525;42.648;23.368;2024-01-30T07:15:05;96692.66;;;-0.18;100.00
10946;BME280;5525;42.648;23.368;2024-01-30T07:17:33;96693.28;;;-0.16;100.00
10946;BME280;5525;42.648;23.368;2024-01-30T07:20:00;96692.06;;;-0.20;100.00
10946;BME280;5525;42.648;23.368;2024-01-30T07:22:28;96695.66;;;-0.02;100.00
10946;BME280;5525;42.648;23.368;2024-01-30T07:24:55;96695.88;;;0.03;100.00
10946;BME280;5525;42.648;23.368;2024-01-30T07:27:22;96700.75;;;0.07;100.00
10946;BME280;5525;42.648;23.368;2024-01-30T07:29:49;96690.78;;;0.02;100.00
10946;BME280;5525;42.648;23.368;2024-01-30T07:32:17;96697.06;;;0.14;100.00
10946;BME280;5525;42.648;23.368;2024-01-30T07:34:44;96699.28;;;0.17;100.00
10946;BME280;5525;42.648;23.368;2024-01-30T07:37:11;96687.03;;;0.23;100.00
10946;BME280;5525;42.648;23.368;2024-01-30T07:39:41;96685.13;;;0.36;100.00
10946;BME280;5525;42.648;23.368;2024-01-30T07:42:07;96696.31;;;0.45;98.68
10946;BME280;5525;42.648;23.368;2024-01-30T07:44:34;96693.84;;;0.50;97.13
10946;BME280;5525;42.648;23.368;2024-01-30T07:47:01;96688.84;;;0.66;96.62
10946;BME280;5525;42.648;23.368;2024-01-30T07:49:29;96682.97;;;0.58;96.95
10946;BME280;5525;42.648;23.368;2024-01-30T07:51:57;96688.19;;;0.77;96.00
10946;BME280;5525;42.648;23.368;2024-01-30T07:54:25;96689.19;;;0.83;94.73
10946;BME280;5525;42.648;23.368;2024-01-30T07:56:52;96697.75;;;0.85;94.83
10946;BME280;5525;42.648;23.368;2024-01-30T07:59:18;96685.25;;;0.92;94.24
10946;BME280;5525;42.648;23.368;2024-01-30T08:01:47;96689.91;;;0.65;94.85
10946;BME280;5525;42.648;23.368;2024-01-30T08:04:14;96688.78;;;0.79;94.50
10946;BME280;5525;42.648;23.368;2024-01-30T08:06:42;96689.97;;;0.90;93.40
10946;BME280;5525;42.648;23.368;2024-01-30T08:09:09;96682.00;;;0.83;92.61
10946;BME280;5525;42.648;23.368;2024-01-30T08:11:36;96684.84;;;0.88;93.26
10946;BME280;5525;42.648;23.368;2024-01-30T08:14:03;96684.16;;;0.99;93.87
10946;BME280;5525;42.648;23.368;2024-01-30T08:16:29;96684.78;;;1.01;94.01
10946;BME280;5525;42.648;23.368;2024-01-30T08:18:56;96678.75;;;1.12;93.26
10946;BME280;5525;42.648;23.368;2024-01-30T08:21:23;96679.75;;;1.18;92.38
10946;BME280;5525;42.648;23.368;2024-01-30T08:23:51;96685.38;;;1.28;90.49
10946;BME280;5525;42.648;23.368;2024-01-30T08:26:19;96681.75;;;1.22;89.17
10946;BME280;5525;42.648;23.368;2024-01-30T08:28:45;96687.28;;;1.21;88.48
10946;BME280;5525;42.648;23.368;2024-01-30T08:31:13;96687.72;;;1.18;88.25
10946;BME280;5525;42.648;23.368;2024-01-30T08:33:40;96691.53;;;1.28;88.26
10946;BME280;5525;42.648;23.368;2024-01-30T08:36:07;96681.59;;;1.42;87.82
10946;BME280;5525;42.648;23.368;2024-01-30T08:38:34;96686.50;;;1.63;86.55
10946;BME280;5525;42.648;23.368;2024-01-30T08:41:02;96687.38;;;1.32;85.55
10946;BME280;5525;42.648;23.368;2024-01-30T08:43:29;96689.81;;;1.58;86.24
10946;BME280;5525;42.648;23.368;2024-01-30T08:45:58;96688.41;;;1.81;84.87
10946;BME280;5525;42.648;23.368;2024-01-30T08:48:25;96699.44;;;2.02;84.29
10946;BME280;5525;42.648;23.368;2024-01-30T08:50:52;96692.72;;;2.18;82.24
10946;BME280;5525;42.648;23.368;2024-01-30T08:53:19;96696.78;;;2.20;81.27
10946;BME280;5525;42.648;23.368;2024-01-30T08:55:46;96699.28;;;2.51;80.96
10946;BME280;5525;42.648;23.368;2024-01-30T08:58:14;96699.03;;;2.89;78.67
10946;BME280;5525;42.648;23.368;2024-01-30T09:00:43;96699.09;;;3.12;76.39
10946;BME280;5525;42.648;23.368;2024-01-30T09:03:10;96697.28;;;3.35;74.29
10946;BME280;5525;42.648;23.368;2024-01-30T09:05:37;96706.81;;;3.31;73.06
10946;BME280;5525;42.648;23.368;2024-01-30T09:08:04;96695.13;;;3.67;74.03
10946;BME280;5525;42.648;23.368;2024-01-30T09:10:31;96698.72;;;3.61;72.02
10946;BME280;5525;42.648;23.368;2024-01-30T09:12:58;96682.28;;;3.23;72.30
10946;BME280;5525;42.648;23.368;2024-01-30T09:15:26;96701.22;;;3.33;72.67
10946;BME280;5525;42.648;23.368;2024-01-30T09:17:53;96681.66;;;3.51;71.86
10946;BME280;5525;42.648;23.368;2024-01-30T09:20:19;96684.44;;;3.03;73.28
10946;BME280;5525;42.648;23.368;2024-01-30T09:22:47;96693.00;;;3.34;71.95
10946;BME280;5525;42.648;23.368;2024-01-30T09:25:14;96681.75;;;3.44;72.50
10946;BME280;5525;42.648;23.368;2024-01-30T09:27:41;96672.69;;;3.33;71.63
10946;BME280;5525;42.648;23.368;2024-01-30T09:30:09;96677.84;;;3.05;71.41
10946;BME280;5525;42.648;23.368;2024-01-30T09:32:37;96672.94;;;2.61;72.09
10946;BME280;5525;42.648;23.368;2024-01-30T09:35:06;96675.53;;;3.09;71.51
10946;BME280;5525;42.648;23.368;2024-01-30T09:37:33;96678.50;;;2.24;72.95
10946;BME280;5525;42.648;23.368;2024-01-30T09:40:00;96683.25;;;2.87;72.88
10946;BME280;5525;42.648;23.368;2024-01-30T09:42:32;96678.94;;;3.27;71.72
10946;BME280;5525;42.648;23.368;2024-01-30T09:45:01;96667.59;;;3.67;70.45
10946;BME280;5525;42.648;23.368;2024-01-30T09:47:32;96671.88;;;3.91;69.66
10946;BME280;5525;42.648;23.368;2024-01-30T09:50:03;96669.16;;;4.37;68.16
10946;BME280;5525;42.648;23.368;2024-01-30T09:52:31;96670.78;;;4.38;67.00
10946;BME280;5525;42.648;23.368;2024-01-30T09:55:00;96673.91;;;4.46;66.55
10946;BME280;5525;42.648;23.368;2024-01-30T09:57:28;96661.06;;;4.32;66.75
10946;BME280;5525;42.648;23.368;2024-01-30T09:59:55;96672.13;;;3.89;69.51
10946;BME280;5525;42.648;23.368;2024-01-30T10:02:23;96647.84;;;4.02;71.02
10946;BME280;5525;42.648;23.368;2024-01-30T10:04:51;96657.25;;;3.82;72.29
10946;BME280;5525;42.648;23.368;2024-01-30T10:07:20;96658.53;;;3.56;71.57
10946;BME280;5525;42.648;23.368;2024-01-30T10:09:47;96649.63;;;3.51;71.30
10946;BME280;5525;42.648;23.368;2024-01-30T10:12:14;96640.75;;;3.27;72.48
10946;BME280;5525;42.648;23.368;2024-01-30T10:14:42;96651.69;;;3.48;72.95
10946;BME280;5525;42.648;23.368;2024-01-30T10:17:10;96654.47;;;3.54;71.67
10946;BME280;5525;42.648;23.368;2024-01-30T10:19:38;96659.25;;;3.52;71.09
10946;BME280;5525;42.648;23.368;2024-01-30T10:22:05;96659.47;;;3.85;70.77
10946;BME280;5525;42.648;23.368;2024-01-30T10:24:34;96648.06;;;3.66;70.61
10946;BME280;5525;42.648;23.368;2024-01-30T10:27:01;96655.66;;;3.81;71.28
10946;BME280;5525;42.648;23.368;2024-01-30T10:29:28;96656.22;;;3.48;72.31
10946;BME280;5525;42.648;23.368;2024-01-30T10:31:59;96655.03;;;3.56;71.99
10946;BME280;5525;42.648;23.368;2024-01-30T10:34:26;96648.66;;;3.68;71.20
10946;BME280;5525;42.648;23.368;2024-01-30T10:37:00;96648.91;;;4.01;71.31
10946;BME280;5525;42.648;23.368;2024-01-30T10:39:29;96653.72;;;4.27;69.49
10946;BME280;5525;42.648;23.368;2024-01-30T10:42:00;96643.31;;;3.91;69.39
10946;BME280;5525;42.648;23.368;2024-01-30T10:44:35;96655.63;;;3.46;70.99
10946;BME280;5525;42.648;23.368;2024-01-30T10:47:06;96645.53;;;3.60;71.49
10946;BME280;5525;42.648;23.368;2024-01-30T10:49:33;96648.66;;;3.68;71.18
10946;BME280;5525;42.648;23.368;2024-01-30T10:52:01;96652.84;;;3.99;70.50
10946;BME280;5525;42.648;23.368;2024-01-30T10:54:30;96653.44;;;3.78;69.75
10946;BME280;5525;42.648;23.368;2024-01-30T10:57:00;96641.13;;;3.65;70.69
10946;BME280;5525;42.648;23.368;2024-01-30T10:59:29;96647.03;;;3.79;69.92
10946;BME280;5525;42.648;23.368;2024-01-30T11:01:57;96638.66;;;4.49;69.33
10946;BME280;5525;42.648;23.368;2024-01-30T11:04:25;96630.53;;;5.00;67.46
10946;BME280;5525;42.648;23.368;2024-01-30T11:06:51;96626.25;;;5.33;65.90
10946;BME280;5525;42.648;23.368;2024-01-30T11:09:19;96625.13;;;5.29;64.11
10946;BME280;5525;42.648;23.368;2024-01-30T11:11:50;96613.59;;;5.28;64.30
10946;BME280;5525;42.648;23.368;2024-01-30T11:14:23;96618.41;;;5.43;63.77
10946;BME280;5525;42.648;23.368;2024-01-30T11:16:50;96613.16;;;6.24;61.77
10946;BME280;5525;42.648;23.368;2024-01-30T11:19:22;96611.41;;;6.56;60.31
10946;BME280;5525;42.648;23.368;2024-01-30T11:21:50;96608.22;;;6.16;59.52
10946;BME280;5525;42.648;23.368;2024-01-30T11:24:19;96618.88;;;6.11;59.42
10946;BME280;5525;42.648;23.368;2024-01-30T11:26:48;96609.75;;;5.74;59.77
10946;BME280;5525;42.648;23.368;2024-01-30T11:29:15;96606.31;;;5.78;60.44
10946;BME280;5525;42.648;23.368;2024-01-30T11:31:52;96609.69;;;5.19;62.26
10946;BME280;5525;42.648;23.368;2024-01-30T11:34:20;96601.81;;;5.29;61.62
10946;BME280;5525;42.648;23.368;2024-01-30T11:36:51;96607.66;;;5.09;62.29
10946;BME280;5525;42.648;23.368;2024-01-30T11:39:20;96610.00;;;5.06;63.49
10946;BME280;5525;42.648;23.368;2024-01-30T11:41:50;96609.59;;;5.31;63.62
10946;BME280;5525;42.648;23.368;2024-01-30T11:44:17;96608.28;;;4.83;62.90
10946;BME280;5525;42.648;23.368;2024-01-30T11:46:45;96610.94;;;4.83;63.44
10946;BME280;5525;42.648;23.368;2024-01-30T11:49:14;96619.59;;;4.74;64.01
10946;BME280;5525;42.648;23.368;2024-01-30T11:51:41;96612.91;;;4.88;64.40
10946;BME280;5525;42.648;23.368;2024-01-30T11:54:08;96618.63;;;4.80;64.24
10946;BME280;5525;42.648;23.368;2024-01-30T11:56:34;96601.00;;;4.95;64.49
10946;BME280;5525;42.648;23.368;2024-01-30T11:59:03;96591.09;;;4.96;64.25
10946;BME280;5525;42.648;23.368;2024-01-30T12:01:30;96589.06;;;5.03;63.67
10946;BME280;5525;42.648;23.368;2024-01-30T12:03:58;96588.59;;;4.61;64.61
10946;BME280;5525;42.648;23.368;2024-01-30T12:06:26;96586.31;;;4.53;64.63
10946;BME280;5525;42.648;23.368;2024-01-30T12:08:57;96590.78;;;4.64;65.38
10946;BME280;5525;42.648;23.368;2024-01-30T12:11:25;96573.56;;;4.44;65.64
10946;BME280;5525;42.648;23.368;2024-01-30T12:13:53;96574.41;;;4.33;65.97
10946;BME280;5525;42.648;23.368;2024-01-30T12:16:20;96574.94;;;4.46;65.92
10946;BME280;5525;42.648;23.368;2024-01-30T12:18:47;96567.16;;;4.45;65.93
10946;BME280;5525;42.648;23.368;2024-01-30T12:21:16;96568.22;;;4.44;65.84
10946;BME280;5525;42.648;23.368;2024-01-30T12:23:44;96563.31;;;4.13;66.42
10946;BME280;5525;42.648;23.368;2024-01-30T12:26:13;96547.81;;;3.98;66.27
10946;BME280;5525;42.648;23.368;2024-01-30T12:28:47;96558.44;;;4.10;67.43
10946;BME280;5525;42.648;23.368;2024-01-30T12:31:14;96557.06;;;4.07;67.46
10946;BME280;5525;42.648;23.368;2024-01-30T12:33:41;96558.38;;;3.93;67.93
10946;BME280;5525;42.648;23.368;2024-01-30T12:36:08;96546.72;;;3.60;68.05
10946;BME280;5525;42.648;23.368;2024-01-30T12:38:35;96536.97;;;3.42;70.04
10946;BME280;5525;42.648;23.368;2024-01-30T12:41:03;96536.72;;;3.67;69.67
10946;BME280;5525;42.648;23.368;2024-01-30T12:43:30;96523.53;;;5.22;67.77
10946;BME280;5525;42.648;23.368;2024-01-30T12:45:57;96537.25;;;8.33;59.96
10946;BME280;5525;42.648;23.368;2024-01-30T12:48:26;96528.78;;;9.36;52.82
10946;BME280;5525;42.648;23.368;2024-01-30T12:50:54;96540.09;;;9.43;48.61
10946;BME280;5525;42.648;23.368;2024-01-30T12:53:21;96523.13;;;10.42;46.45
10946;BME280;5525;42.648;23.368;2024-01-30T12:55:48;96518.94;;;10.10;45.59
10946;BME280;5525;42.648;23.368;2024-01-30T12:58:17;96520.03;;;11.07;44.98